createdAt,value
2022-12-23T00:01:24.304Z,100147.69
2022-12-23T00:03:53.136Z,100143.90
2022-12-23T00:06:21.376Z,100140.46
2022-12-23T00:08:49.397Z,100138.21
2022-12-23T00:11:19.947Z,100135.77
2022-12-23T00:14:06.396Z,100139.56
2022-12-23T00:16:37.397Z,100143.71
2022-12-23T00:19:06.220Z,100141.63
2022-12-23T00:21:35.891Z,100135.59
2022-12-23T00:24:04.508Z,100138.44
2022-12-23T00:26:32.358Z,100137.75
2022-12-23T00:29:00.579Z,100133.08
2022-12-23T00:31:28.827Z,100123.06
2022-12-23T00:33:56.717Z,100115.98
2022-12-23T00:36:28.008Z,100113.00
2022-12-23T00:39:17.576Z,100112.09
2022-12-23T00:42:04.814Z,100113.61
2022-12-23T00:44:33.067Z,100111.77
2022-12-23T00:47:00.990Z,100111.54
2022-12-23T00:49:44.559Z,100110.94
2022-12-23T00:52:15.750Z,100109.13
2022-12-23T00:54:43.920Z,100108.20
2022-12-23T00:57:12.142Z,100104.17
2022-12-23T00:59:40.021Z,100104.11
2022-12-23T01:02:30.179Z,100098.75
2022-12-23T01:05:16.919Z,100094.68
2022-12-23T01:07:45.059Z,100088.84
2022-12-23T01:10:13.116Z,100086.77
2022-12-23T01:12:41.290Z,100084.48
2022-12-23T01:15:09.589Z,100086.88
2022-12-23T01:17:37.724Z,100086.02
2022-12-23T01:20:06.467Z,100080.30
2022-12-23T01:22:34.337Z,100078.21
2022-12-23T01:25:02.617Z,100072.89
2022-12-23T01:27:30.917Z,100077.19
2022-12-23T01:29:59.153Z,100075.23
2022-12-23T01:32:27.235Z,100076.29
2022-12-23T01:34:55.087Z,100078.91
2022-12-23T01:37:23.544Z,100075.73
2022-12-23T01:39:51.498Z,100074.73
2022-12-23T01:42:39.787Z,100074.58
2022-12-23T01:45:30.587Z,100074.83
2022-12-23T01:47:58.538Z,100076.89
2022-12-23T01:50:41.678Z,100072.21
2022-12-23T01:53:19.645Z,100072.36
2022-12-23T01:55:53.329Z,100073.71
2022-12-23T01:58:27.525Z,100075.46
2022-12-23T02:01:16.895Z,100076.64
2022-12-23T02:03:46.973Z,100077.63
2022-12-23T02:06:57.530Z,100073.94
2022-12-23T02:09:34.309Z,100072.23
2022-12-23T02:12:31.827Z,100069.30
2022-12-23T02:15:27.874Z,100074.30
2022-12-23T02:18:11.073Z,100069.59
2022-12-23T02:20:59.963Z,100067.67
2022-12-23T02:23:37.145Z,100062.61
2022-12-23T02:26:30.078Z,100061.35
2022-12-23T02:29:37.311Z,100061.92
2022-12-23T02:32:16.780Z,100060.27
2022-12-23T02:35:11.473Z,100058.50
2022-12-23T02:37:48.259Z,100057.45
2022-12-23T02:40:29.342Z,100057.90
2022-12-23T02:43:12.503Z,100057.45
2022-12-23T02:45:54.801Z,100058.82
2022-12-23T02:48:35.287Z,100055.77
2022-12-23T02:51:06.364Z,100051.54
2022-12-23T02:53:56.611Z,100049.94
2022-12-23T02:56:27.515Z,100053.06
2022-12-23T02:59:00.958Z,100052.38
2022-12-23T03:01:32.153Z,100047.45
2022-12-23T03:04:00.544Z,100042.69
2022-12-23T03:06:33.281Z,100036.59
2022-12-23T03:09:01.610Z,100035.16
2022-12-23T03:12:06.127Z,100035.99
2022-12-23T03:15:05.289Z,100042.02
2022-12-23T03:17:54.228Z,100042.98
2022-12-23T03:20:39.276Z,100043.79
2022-12-23T03:23:23.806Z,100042.73
2022-12-23T03:26:14.239Z,100041.38
2022-12-23T03:29:00.760Z,100037.53
2022-12-23T03:31:31.805Z,100031.58
2022-12-23T03:34:08.671Z,100029.11
2022-12-23T03:36:49.405Z,100030.50
2022-12-23T03:39:20.364Z,100030.44
2022-12-23T03:41:54.115Z,100024.27
2022-12-23T03:44:30.606Z,100021.92
2022-12-23T03:47:07.088Z,100022.31
2022-12-23T03:50:11.620Z,100019.14
2022-12-23T03:52:45.804Z,100014.30
2022-12-23T03:55:20.842Z,100019.23
2022-12-23T03:57:58.367Z,100021.95
2022-12-23T04:00:30.574Z,100019.27
2022-12-23T04:03:22.050Z,100018.16
2022-12-23T04:05:57.421Z,100021.28
2022-12-23T04:08:37.617Z,100021.14
2022-12-23T04:11:06.329Z,100018.17
2022-12-23T04:13:34.670Z,100011.90
2022-12-23T04:16:03.186Z,100010.31
2022-12-23T04:18:31.565Z,100012.19
2022-12-23T04:20:59.746Z,100018.92
2022-12-23T04:23:27.675Z,100019.61
2022-12-23T04:25:56.177Z,100018.38
2022-12-23T04:28:24.314Z,100016.98
2022-12-23T04:30:52.523Z,100012.55
2022-12-23T04:33:20.419Z,100010.96
2022-12-23T04:35:48.317Z,100005.77
2022-12-23T04:38:16.533Z,100005.61
2022-12-23T04:40:47.814Z,100004.45
2022-12-23T04:43:16.068Z,100006.73
2022-12-23T04:45:43.972Z,100006.42
2022-12-23T04:48:12.194Z,99998.52
2022-12-23T04:50:40.222Z,99994.73
2022-12-23T04:53:08.342Z,99990.59
2022-12-23T04:55:36.255Z,99988.98
2022-12-23T04:58:04.633Z,99995.98
2022-12-23T05:00:39.117Z,100002.98
2022-12-23T05:03:08.026Z,100014.27
2022-12-23T05:05:36.357Z,100015.36
2022-12-23T05:08:05.489Z,100009.73
2022-12-23T05:10:33.481Z,100013.11
2022-12-23T05:13:01.615Z,100014.75
2022-12-23T05:15:33.096Z,100019.30
2022-12-23T05:18:01.337Z,100019.69
2022-12-23T05:20:29.277Z,100023.77
2022-12-23T05:22:57.792Z,100025.10
2022-12-23T05:25:25.702Z,100029.17
2022-12-23T05:27:53.691Z,100027.06
2022-12-23T05:30:21.967Z,100024.80
2022-12-23T05:32:54.316Z,100024.10
2022-12-23T05:35:23.776Z,100022.59
2022-12-23T05:37:52.134Z,100023.43
2022-12-23T05:40:23.879Z,100024.95
2022-12-23T05:42:53.520Z,100022.72
2022-12-23T05:45:21.621Z,100020.25
2022-12-23T05:47:49.563Z,100020.41
2022-12-23T05:50:17.540Z,100020.19
2022-12-23T05:52:45.823Z,100022.20
2022-12-23T05:55:14.057Z,100020.77
2022-12-23T05:57:42.039Z,100022.66
2022-12-23T06:00:10.937Z,100026.78
2022-12-23T06:02:42.097Z,100029.17
2022-12-23T06:05:11.865Z,100031.20
2022-12-23T06:07:40.687Z,100029.39
2022-12-23T06:10:10.507Z,100028.83
2022-12-23T06:12:38.840Z,100028.96
2022-12-23T06:15:07.860Z,100032.89
2022-12-23T06:17:35.860Z,100033.89
2022-12-23T06:20:04.671Z,100034.36
2022-12-23T06:22:32.933Z,100031.75
2022-12-23T06:25:00.954Z,100033.88
2022-12-23T06:27:28.950Z,100039.30
2022-12-23T06:29:57.330Z,100034.14
2022-12-23T06:32:25.506Z,100036.59
2022-12-23T06:34:53.820Z,100032.27
2022-12-23T06:37:21.839Z,100034.21
2022-12-23T06:39:49.875Z,100035.25
2022-12-23T06:42:17.763Z,100036.06
2022-12-23T06:44:45.751Z,100036.35
2022-12-23T06:47:13.789Z,100036.46
2022-12-23T06:49:41.906Z,100045.10
2022-12-23T06:52:10.420Z,100049.02
2022-12-23T06:54:38.579Z,100048.06
2022-12-23T06:57:06.591Z,100047.62
2022-12-23T06:59:34.801Z,100044.46
2022-12-23T07:02:03.666Z,100048.46
2022-12-23T07:04:31.973Z,100049.63
2022-12-23T07:07:00.176Z,100051.66
2022-12-23T07:09:28.161Z,100055.53
2022-12-23T07:11:56.023Z,100054.11
2022-12-23T07:14:24.191Z,100046.09
2022-12-23T07:16:52.237Z,100041.48
2022-12-23T07:19:20.402Z,100041.05
2022-12-23T07:21:48.378Z,100045.27
2022-12-23T07:24:17.066Z,100051.19
2022-12-23T07:26:45.041Z,100048.64
2022-12-23T07:29:13.164Z,100048.13
2022-12-23T07:31:41.781Z,100049.36
2022-12-23T07:34:10.140Z,100046.56
2022-12-23T07:36:38.078Z,100049.14
2022-12-23T07:39:06.796Z,100052.91
2022-12-23T07:41:34.714Z,100055.66
2022-12-23T07:44:09.002Z,100058.38
2022-12-23T07:46:38.036Z,100056.50
2022-12-23T07:49:06.522Z,100058.21
2022-12-23T07:51:34.406Z,100063.82
2022-12-23T07:54:02.914Z,100071.28
2022-12-23T07:56:30.940Z,100073.52
2022-12-23T07:58:58.816Z,100076.11
2022-12-23T08:01:27.176Z,100079.41
2022-12-23T08:03:55.278Z,100081.34
2022-12-23T08:06:23.620Z,100082.63
2022-12-23T08:08:51.509Z,100080.88
2022-12-23T08:11:19.993Z,100083.41
2022-12-23T08:13:49.257Z,100084.88
2022-12-23T08:16:17.409Z,100082.73
2022-12-23T08:18:45.783Z,100083.27
2022-12-23T08:21:19.639Z,100091.88
2022-12-23T08:23:48.527Z,100091.59
2022-12-23T08:26:19.477Z,100095.01
2022-12-23T08:28:48.830Z,100095.66
2022-12-23T08:31:21.039Z,100096.70
2022-12-23T08:33:52.068Z,100094.96
2022-12-23T08:36:23.611Z,100095.14
2022-12-23T08:38:54.722Z,100093.70
2022-12-23T08:41:29.586Z,100094.61
2022-12-23T08:43:57.779Z,100089.48
2022-12-23T08:46:26.764Z,100091.82
2022-12-23T08:48:55.379Z,100092.80
2022-12-23T08:51:25.092Z,100095.10
2022-12-23T08:54:01.070Z,100091.27
2022-12-23T08:56:32.401Z,100088.48
2022-12-23T08:59:00.885Z,100091.56
2022-12-23T09:01:31.621Z,100087.71
2022-12-23T09:04:06.051Z,100089.59
2022-12-23T09:06:43.423Z,100085.82
2022-12-23T09:09:15.681Z,100078.05
2022-12-23T09:11:44.222Z,100074.27
2022-12-23T09:14:12.606Z,100069.05
2022-12-23T09:16:40.804Z,100069.16
2022-12-23T09:19:09.408Z,100068.98
2022-12-23T09:21:37.621Z,100071.59
2022-12-23T09:24:06.280Z,100073.30
2022-12-23T09:26:34.194Z,100074.80
2022-12-23T09:29:02.314Z,100078.56
2022-12-23T09:31:36.242Z,100072.58
2022-12-23T09:34:05.697Z,100070.63
2022-12-23T09:36:34.153Z,100070.13
2022-12-23T09:39:02.382Z,100069.39
2022-12-23T09:41:48.718Z,100061.62
2022-12-23T09:44:25.978Z,100064.54
2022-12-23T09:47:01.769Z,100064.71
2022-12-23T09:49:29.949Z,100066.67
2022-12-23T09:52:04.670Z,100067.86
2022-12-23T09:54:46.407Z,100063.99
2022-12-23T09:57:23.883Z,100061.30
2022-12-23T10:00:06.961Z,100055.52
2022-12-23T10:02:53.864Z,100050.46
2022-12-23T10:05:53.575Z,100048.75
2022-12-23T10:08:33.678Z,100049.63
2022-12-23T10:11:10.972Z,100058.20
2022-12-23T10:13:43.772Z,100071.34
2022-12-23T10:16:19.525Z,100072.95
2022-12-23T10:18:53.886Z,100065.81
2022-12-23T10:21:47.541Z,100060.79
2022-12-23T10:24:25.403Z,100058.49
2022-12-23T10:27:06.561Z,100057.18
2022-12-23T10:29:34.675Z,100057.20
2022-12-23T10:32:11.936Z,100055.16
2022-12-23T10:34:42.864Z,100054.48
2022-12-23T10:37:34.897Z,100052.73
2022-12-23T10:40:27.721Z,100051.50
2022-12-23T10:43:04.742Z,100046.71
2022-12-23T10:45:35.277Z,100042.25
2022-12-23T10:48:06.073Z,100035.80
2022-12-23T10:50:37.020Z,100034.52
2022-12-23T10:53:10.545Z,100035.65
2022-12-23T10:55:39.541Z,100030.17
2022-12-23T10:58:18.474Z,100027.27
2022-12-23T11:00:52.584Z,100023.71
2022-12-23T11:03:32.052Z,100020.25
2022-12-23T11:06:01.329Z,100025.35
2022-12-23T11:08:31.467Z,100033.23
2022-12-23T11:11:01.182Z,100036.94
2022-12-23T11:13:32.310Z,100035.48
2022-12-23T11:16:24.110Z,100032.70
2022-12-23T11:19:00.961Z,100027.25
2022-12-23T11:21:30.845Z,100025.61
2022-12-23T11:24:06.972Z,100016.64
2022-12-23T11:26:36.091Z,100003.39
2022-12-23T11:29:11.446Z,99999.25
2022-12-23T11:31:42.648Z,99988.66
2022-12-23T11:34:15.915Z,99977.54
2022-12-23T11:36:54.694Z,99969.16
2022-12-23T11:39:28.065Z,99965.98
2022-12-23T11:42:27.380Z,99964.54
2022-12-23T11:44:59.630Z,99961.17
2022-12-23T11:47:34.028Z,99958.19
2022-12-23T11:50:20.692Z,99952.42
2022-12-23T11:52:55.776Z,99947.82
2022-12-23T11:55:30.160Z,99938.72
2022-12-23T11:58:00.588Z,99932.25
2022-12-23T12:00:40.794Z,99927.98
2022-12-23T12:03:19.080Z,99924.79
2022-12-23T12:05:51.698Z,99914.80
2022-12-23T12:08:24.862Z,99909.40
2022-12-23T12:11:00.726Z,99907.40
2022-12-23T12:13:32.560Z,99904.05
2022-12-23T12:16:12.456Z,99903.32
2022-12-23T12:18:43.648Z,99900.02
2022-12-23T12:21:16.598Z,99898.74
2022-12-23T12:24:14.839Z,99897.48
2022-12-23T12:26:44.379Z,99896.09
2022-12-23T12:29:16.843Z,99896.89
2022-12-23T12:31:51.638Z,99888.14
2022-12-23T12:34:23.523Z,99885.95
2022-12-23T12:37:10.618Z,99884.08
2022-12-23T12:39:48.956Z,99882.31
2022-12-23T12:42:27.729Z,99879.86
2022-12-23T12:44:59.865Z,99881.59
2022-12-23T12:48:01.418Z,99882.13
2022-12-23T12:50:34.623Z,99883.16
2022-12-23T12:53:13.050Z,99885.76
2022-12-23T12:55:46.277Z,99880.19
2022-12-23T12:58:23.792Z,99873.68
2022-12-23T13:01:18.861Z,99879.20
2022-12-23T13:04:20.737Z,99883.30
2022-12-23T13:07:23.671Z,99886.04
2022-12-23T13:10:06.349Z,99885.55
2022-12-23T13:12:54.082Z,99878.77
2022-12-23T13:15:28.274Z,99873.73
2022-12-23T13:18:03.464Z,99871.07
2022-12-23T13:20:39.698Z,99872.92
2022-12-23T13:23:42.428Z,99875.10
2022-12-23T13:26:18.380Z,99876.04
2022-12-23T13:29:03.715Z,99872.85
2022-12-23T13:32:01.772Z,99871.73
2022-12-23T13:34:42.493Z,99873.91
2022-12-23T13:37:10.421Z,99879.95
2022-12-23T13:39:55.331Z,99885.38
2022-12-23T13:42:35.393Z,99886.50
2022-12-23T13:45:05.899Z,99895.66
2022-12-23T13:48:05.348Z,99903.04
2022-12-23T13:50:40.435Z,99913.16
2022-12-23T13:53:53.579Z,99918.50
2022-12-23T13:56:35.071Z,99912.05
2022-12-23T13:59:03.227Z,99915.28
2022-12-23T14:01:44.004Z,99918.75
2022-12-23T14:04:32.927Z,99914.45
2022-12-23T14:07:18.143Z,99910.77
2022-12-23T14:09:53.500Z,99911.33
2022-12-23T14:12:39.261Z,99913.36
2022-12-23T14:15:35.549Z,99916.05
2022-12-23T14:18:04.866Z,99918.30
2022-12-23T14:20:45.036Z,99920.60
2022-12-23T14:23:41.190Z,99923.26
2022-12-23T14:26:27.527Z,99923.48
2022-12-23T14:29:14.247Z,99920.23
2022-12-23T14:31:55.474Z,99920.67
2022-12-23T14:34:32.835Z,99916.83
2022-12-23T14:37:25.477Z,99911.52
2022-12-23T14:39:54.302Z,99916.88
2022-12-23T14:42:40.283Z,99916.52
2022-12-23T14:45:35.673Z,99910.73
2022-12-23T14:48:42.134Z,99911.77
2022-12-23T14:51:10.126Z,99920.51
2022-12-23T14:53:58.520Z,99930.23
2022-12-23T14:56:47.432Z,99935.15
2022-12-23T14:59:37.863Z,99935.99
2022-12-23T15:02:22.155Z,99932.39
2022-12-23T15:04:56.088Z,99935.88
2022-12-23T15:07:46.714Z,99941.45
2022-12-23T15:10:25.789Z,99941.88
2022-12-23T15:12:58.310Z,99941.40
2022-12-23T15:15:29.857Z,99946.77
2022-12-23T15:18:07.016Z,99945.50
2022-12-23T15:20:35.300Z,99952.58
2022-12-23T15:23:10.363Z,99957.62
2022-12-23T15:25:46.122Z,99955.77
2022-12-23T15:28:22.838Z,99955.47
2022-12-23T15:30:56.469Z,99957.24
2022-12-23T15:36:30.648Z,99962.83
2022-12-23T15:39:00.893Z,99954.15
2022-12-23T15:41:30.022Z,99944.55
2022-12-23T15:44:01.871Z,99939.71
2022-12-23T15:46:32.129Z,99935.56
2022-12-23T15:49:00.191Z,99929.34
2022-12-23T15:52:07.273Z,99926.23
2022-12-23T15:54:40.244Z,99921.94
2022-12-23T15:57:12.144Z,99913.84
2022-12-23T15:59:40.388Z,99910.60
2022-12-23T16:02:58.447Z,99905.16
2022-12-23T16:05:07.959Z,99898.20
2022-12-23T16:07:41.129Z,99895.96
2022-12-23T16:10:36.088Z,99892.38
2022-12-23T16:13:04.400Z,99889.39
2022-12-23T16:15:33.395Z,99888.15
2022-12-23T16:18:21.711Z,99884.58
2022-12-23T16:20:57.772Z,99888.13
2022-12-23T16:23:30.242Z,99893.30
2022-12-23T16:26:00.644Z,99894.12
2022-12-23T16:28:41.026Z,99897.52
2022-12-23T16:31:11.005Z,99893.71
2022-12-23T16:33:46.016Z,99890.81
2022-12-23T16:36:15.056Z,99891.30
2022-12-23T16:38:43.326Z,99889.40
2022-12-23T16:41:11.303Z,99891.98
2022-12-23T16:43:40.730Z,99894.01
2022-12-23T16:46:17.431Z,99888.45
2022-12-23T16:49:00.587Z,99889.11
2022-12-23T16:51:33.622Z,99887.64
2022-12-23T16:54:02.166Z,99884.83
2022-12-23T16:56:35.393Z,99884.45
2022-12-23T16:59:04.460Z,99885.93
2022-12-23T17:01:35.188Z,99884.30
2022-12-23T17:04:03.485Z,99888.35
2022-12-23T17:06:31.869Z,99886.52
2022-12-23T17:08:59.816Z,99882.48
2022-12-23T17:11:41.801Z,99883.39
2022-12-23T17:14:16.682Z,99885.70
2022-12-23T17:16:46.041Z,99886.22
2022-12-23T17:19:15.627Z,99883.27
2022-12-23T17:21:46.109Z,99893.52
2022-12-23T17:24:21.991Z,99895.20
2022-12-23T17:26:51.364Z,99890.64
2022-12-23T17:29:20.227Z,99891.52
2022-12-23T17:31:49.042Z,99890.48
2022-12-23T17:34:23.004Z,99895.96
2022-12-23T17:36:51.485Z,99897.33
2022-12-23T17:39:20.516Z,99895.05
2022-12-23T17:41:48.783Z,99895.82
2022-12-23T17:44:18.222Z,99896.98
2022-12-23T17:46:47.314Z,99891.63
2022-12-23T17:49:15.533Z,99890.15
2022-12-23T17:51:44.028Z,99888.70
2022-12-23T17:54:21.703Z,99880.27
2022-12-23T17:56:51.036Z,99877.31
2022-12-23T17:59:19.221Z,99880.25
2022-12-23T18:01:47.320Z,99880.36
2022-12-23T18:04:15.680Z,99881.29
2022-12-23T18:06:43.985Z,99880.16
2022-12-23T18:09:11.931Z,99878.82
2022-12-23T18:11:44.037Z,99875.92
2022-12-23T18:14:19.791Z,99875.73
2022-12-23T18:16:48.071Z,99877.78
2022-12-23T18:19:19.847Z,99874.99
2022-12-23T18:21:48.445Z,99869.45
2022-12-23T18:24:16.851Z,99867.95
2022-12-23T18:26:45.847Z,99865.74
2022-12-23T18:29:14.210Z,99866.19
2022-12-23T18:31:50.964Z,99864.94
2022-12-23T18:34:20.476Z,99863.36
2022-12-23T18:36:48.985Z,99865.95
2022-12-23T18:39:17.828Z,99861.77
2022-12-23T18:41:46.132Z,99863.98
2022-12-23T18:44:21.461Z,99866.84
2022-12-23T18:46:50.050Z,99868.80
2022-12-23T18:49:18.142Z,99870.23
2022-12-23T18:51:46.476Z,99872.77
2022-12-23T18:54:16.149Z,99873.42
2022-12-23T18:56:44.288Z,99869.10
2022-12-23T18:59:22.535Z,99867.89
2022-12-23T19:01:56.770Z,99867.67
2022-12-23T19:04:26.168Z,99868.84
2022-12-23T19:06:56.384Z,99865.30
2022-12-23T19:09:25.200Z,99862.62
2022-12-23T19:11:54.362Z,99861.23
2022-12-23T19:14:22.784Z,99861.54
2022-12-23T19:16:52.344Z,99861.16
2022-12-23T19:19:22.032Z,99860.86
2022-12-23T19:21:50.066Z,99857.09
2022-12-23T19:24:18.155Z,99858.83
2022-12-23T19:26:46.355Z,99855.95
2022-12-23T19:29:14.530Z,99852.91
2022-12-23T19:31:42.500Z,99850.95
2022-12-23T19:34:14.931Z,99854.26
2022-12-23T19:36:44.286Z,99853.39
2022-12-23T19:39:16.631Z,99853.92
2022-12-23T19:41:45.553Z,99854.25
2022-12-23T19:44:14.385Z,99852.46
2022-12-23T19:46:42.554Z,99853.91
2022-12-23T19:49:17.596Z,99857.81
2022-12-23T19:51:48.485Z,99861.54
2022-12-23T19:54:17.794Z,99866.52
2022-12-23T19:56:46.100Z,99871.23
2022-12-23T19:59:14.137Z,99872.10
2022-12-23T20:01:42.615Z,99874.88
2022-12-23T20:04:10.989Z,99877.48
2022-12-23T20:06:41.127Z,99877.93
2022-12-23T20:09:12.540Z,99881.37
2022-12-23T20:11:43.648Z,99882.70
2022-12-23T20:14:13.793Z,99883.14
2022-12-23T20:16:42.832Z,99886.98
2022-12-23T20:19:11.192Z,99886.88
2022-12-23T20:21:39.670Z,99877.00
2022-12-23T20:24:08.349Z,99875.29
2022-12-23T20:26:36.548Z,99878.05
2022-12-23T20:29:05.947Z,99878.17
2022-12-23T20:31:38.133Z,99884.82
2022-12-23T20:34:07.819Z,99885.73
2022-12-23T20:36:36.937Z,99889.10
2022-12-23T20:39:06.307Z,99890.27
2022-12-23T20:41:34.655Z,99890.75
2022-12-23T20:44:34.061Z,99895.92
2022-12-23T20:46:51.020Z,99894.65
2022-12-23T20:49:19.103Z,99897.59
2022-12-23T20:51:47.458Z,99901.89
2022-12-23T20:54:15.613Z,99908.48
2022-12-23T20:56:43.617Z,99907.07
2022-12-23T20:59:12.051Z,99907.78
2022-12-23T21:01:41.665Z,99904.06
2022-12-23T21:04:13.234Z,99900.73
2022-12-23T21:06:42.290Z,99897.38
2022-12-23T21:09:13.107Z,99896.48
2022-12-23T21:11:44.460Z,99894.10
2022-12-23T21:14:14.996Z,99893.40
2022-12-23T21:16:43.879Z,99895.38
2022-12-23T21:19:19.726Z,99892.45
2022-12-23T21:21:48.736Z,99891.98
2022-12-23T21:24:18.123Z,99891.59
2022-12-23T21:26:51.874Z,99889.80
2022-12-23T21:29:24.488Z,99890.66
2022-12-23T21:31:52.544Z,99895.11
2022-12-23T21:34:20.949Z,99895.84
2022-12-23T21:36:49.225Z,99897.30
2022-12-23T21:39:17.426Z,99902.59
2022-12-23T21:41:46.336Z,99899.09
2022-12-23T21:44:15.028Z,99893.84
2022-12-23T21:46:43.823Z,99884.77
2022-12-23T21:49:13.251Z,99880.60
2022-12-23T21:51:41.953Z,99883.50
2022-12-23T21:54:11.504Z,99880.79
2022-12-23T21:56:40.474Z,99879.44
2022-12-23T21:59:12.825Z,99882.59
2022-12-23T22:01:43.014Z,99885.65
2022-12-23T22:04:12.392Z,99886.44
2022-12-23T22:06:44.070Z,99880.27
2022-12-23T22:09:16.347Z,99874.98
2022-12-23T22:11:45.744Z,99873.45
2022-12-23T22:14:19.904Z,99872.17
2022-12-23T22:16:48.480Z,99872.44
2022-12-23T22:19:16.578Z,99869.77
2022-12-23T22:21:45.088Z,99869.55
2022-12-23T22:24:13.497Z,99869.21
2022-12-23T22:26:42.223Z,99870.30
2022-12-23T22:29:11.511Z,99872.48
2022-12-23T22:31:44.788Z,99873.64
2022-12-23T22:34:16.744Z,99878.63
2022-12-23T22:36:45.139Z,99885.77
2022-12-23T22:39:20.079Z,99893.38
2022-12-23T22:41:51.005Z,99889.44
2022-12-23T22:44:20.802Z,99886.70
2022-12-23T22:46:48.958Z,99887.70
2022-12-23T22:49:17.339Z,99895.51
2022-12-23T22:51:45.929Z,99892.98
2022-12-23T22:54:14.452Z,99884.17
2022-12-23T22:56:42.587Z,99881.55
2022-12-23T22:59:19.683Z,99874.88
2022-12-23T23:01:49.310Z,99868.08
2022-12-23T23:04:18.075Z,99857.98
2022-12-23T23:06:46.184Z,99856.95
2022-12-23T23:09:18.048Z,99856.30
2022-12-23T23:11:46.735Z,99863.00
2022-12-23T23:14:15.096Z,99868.16
2022-12-23T23:16:43.400Z,99867.23
2022-12-23T23:19:12.490Z,99871.77
2022-12-23T23:21:40.670Z,99867.20
2022-12-23T23:24:08.929Z,99867.29
2022-12-23T23:26:37.651Z,99860.91
2022-12-23T23:29:05.716Z,99859.98
2022-12-23T23:31:42.727Z,99853.11
2022-12-23T23:34:12.785Z,99851.67
2022-12-23T23:36:42.093Z,99850.25
2022-12-23T23:39:12.618Z,99850.85
2022-12-23T23:41:41.456Z,99852.14
2022-12-23T23:44:10.374Z,99853.33
2022-12-23T23:46:39.498Z,99849.92
2022-12-23T23:49:07.404Z,99856.35
2022-12-23T23:51:35.678Z,99859.54
2022-12-23T23:54:03.942Z,99855.35
2022-12-23T23:56:37.817Z,99850.31
2022-12-23T23:59:09.222Z,99838.56
